Buckley, WA (98321)

08:42 PM PDT on septembrie 03, 2015 (GMT -0700)
South Prairie, WA | | Change Station
CLOSE
Current Station
Staţie meteo personală
Location: South Prairie, WA
Elevation: 433 ft
Nearby Weather Stations

Elev 433 ft 47.14 °N, 122.09 °W | Updated 48 seconds ago

Cer senin
Cer senin
55.0 °F
Feels Like 55.0 °F
N
0.0
Vânt variabil Vânt from sud
Gusts 0.0 mph

astăzi
High -- | Low -- °F
--% Chance of Precip.
Ieri
High -- | Low -- °F
Precip. -- inch
6:29 AM 7:44 PM
Lună în descreştere, 64% visible
Presiunea 30.01 inch
Vizibilitatea 10.0 mile
Nori Cer în general noros 6500 ft
Cer acoperit 7500 ft
Punctul de rouă 52 °F
Umiditatea 89%
Precipitaţii 0.04 inch
Adâncimea zăpezii Not available.
UV 0.0 out of 12
Pollen 1.50 out of 12
Calitatea aerului Not available.
Flu Activity Not available.
METAR KPLU 040335Z AUTO 00000KT 10SM BKN065 OVC075 13/10 A3001 RMK AO2
Presiunea 30.01 inch
Vizibilitatea 10.0 mile
Nori Cer în general noros 6500 ft
Cer acoperit 7500 ft
Punctul de rouă 52 °F
Umiditatea 89%
Precipitaţii 0.04 inch
Adâncimea zăpezii Not available.
UV 0.0 out of 12
Pollen 1.50 out of 12
Calitatea aerului Not available.
Flu Activity Not available.
METAR KPLU 040335Z AUTO 00000KT 10SM BKN065 OVC075 13/10 A3001 RMK AO2

10-Day Weather Forecast

×

Almanac

Astronomie

Sep. 03, 2015 Răsărit Apus
Timpul Actual
Crepusculul Civil
Crepusculul nautic
Răsărit Astronomic
Luna
Durata zilei lumină
Lungimea zilei
Tomorrow will be .
, % of the Moon is Illuminated

Extremele de azi

State Highs State Lows

Community

WunderPhotos

Upload Photos

1,852,118 photos uploaded!

WunderBlogs® & News

Nearby

Calitatea aerului

  Calitatea aerului Index de calitate a aerului Poluat
Not available.

Adâncimea zapezii

Station Depth Elevation

Earthquake Activity

Oraş Distance Mag. Time & Date
Minimum magnitude displayed is 2.5.

Coastal Water Temperatures

Locul Temperatura

Stations

Nearby Weather Stations

Locaţia staţiei Temp Vânt rece Punctul de rouă Umiditatea Vânt Precip. Elev Actualizare Type